Time;durP1;ratioP1;P1;durP2;ratioP2;P2;SDS_P1;SDS_P2;PMS_P1;PMS_P2;Temp;Humidity;BMP_temperature;BMP_pressure;BME280_temperature;BME280_humidity;BME280_pressure;Samples;Min_cycle;Max_cycle;Signal;HPM_P1;HPM_P2
2024/01/03 00:00:42;;;;;;;0.50;0.30;;;9.70;99.90;;;;;;5028148;28;20025;-70
2024/01/03 00:03:07;;;;;;;1.05;0.30;;;9.70;99.90;;;;;;5024253;28;20037;-70
2024/01/03 00:05:39;;;;;;;0.85;0.30;;;9.70;99.90;;;;;;5025161;28;20053;-70
2024/01/03 00:08:09;;;;;;;2.05;0.40;;;9.70;99.90;;;;;;5023659;28;20392;-70
2024/01/03 00:10:45;;;;;;;2.33;0.30;;;9.70;99.90;;;;;;5022220;28;20053;-70
2024/01/03 00:13:29;;;;;;;4.05;0.40;;;9.70;99.90;;;;;;5026543;28;20436;-70
2024/01/03 00:16:04;;;;;;;1.42;0.38;;;9.60;99.90;;;;;;5024235;28;20040;-71
2024/01/03 00:18:51;;;;;;;2.53;0.40;;;9.60;99.90;;;;;;5024812;28;20492;-70
2024/01/03 00:21:25;;;;;;;2.55;0.38;;;9.60;99.90;;;;;;5023296;28;20022;-71
2024/01/03 00:24:09;;;;;;;1.27;0.40;;;9.60;99.90;;;;;;5024973;28;20052;-70
2024/01/03 00:26:36;;;;;;;0.93;0.40;;;9.50;99.90;;;;;;5026542;28;20037;-70
2024/01/03 00:29:04;;;;;;;2.70;0.50;;;9.50;99.90;;;;;;5029256;28;20684;-71
2024/01/03 00:31:37;;;;;;;1.13;0.40;;;9.50;99.90;;;;;;5026133;28;20998;-71
2024/01/03 00:34:24;;;;;;;2.28;0.30;;;9.40;99.90;;;;;;5026762;28;20033;-70
2024/01/03 00:36:54;;;;;;;1.98;0.57;;;9.40;99.90;;;;;;5025676;28;20120;-71
2024/01/03 00:39:31;;;;;;;2.10;0.55;;;9.40;99.90;;;;;;5027137;28;20025;-71
2024/01/03 00:41:57;;;;;;;1.75;0.43;;;9.40;99.90;;;;;;5025691;28;20024;-71
2024/01/03 00:44:23;;;;;;;0.85;0.30;;;9.40;99.90;;;;;;5028120;28;20013;-71
2024/01/03 00:46:49;;;;;;;2.17;0.40;;;9.40;99.90;;;;;;5026816;28;20105;-71
2024/01/03 00:49:16;;;;;;;0.90;0.40;;;9.40;99.90;;;;;;5042058;28;20151;-70
2024/01/03 00:51:48;;;;;;;1.05;0.40;;;9.40;99.90;;;;;;5028453;28;20030;-71
2024/01/03 00:54:16;;;;;;;1.45;0.30;;;9.40;99.90;;;;;;5029486;28;20029;-70
2024/01/03 00:56:43;;;;;;;0.40;0.30;;;9.40;99.90;;;;;;5026889;28;21742;-69
2024/01/03 00:59:09;;;;;;;0.77;0.28;;;9.40;99.90;;;;;;5029459;28;20542;-70
2024/01/03 01:01:35;;;;;;;0.93;0.30;;;9.30;99.90;;;;;;5040952;28;20029;-70
2024/01/03 01:04:00;;;;;;;1.58;0.45;;;9.30;99.90;;;;;;5044541;28;20028;-70
2024/01/03 01:06:26;;;;;;;1.58;0.57;;;9.30;99.90;;;;;;5025131;28;20034;-71
2024/01/03 01:08:51;;;;;;;0.68;0.30;;;9.20;99.90;;;;;;5027619;28;20504;-71
2024/01/03 01:11:17;;;;;;;1.30;0.40;;;9.10;99.90;;;;;;5039895;28;20117;-72
2024/01/03 01:13:42;;;;;;;2.40;0.68;;;9.10;99.90;;;;;;5029258;28;20018;-72
2024/01/03 01:16:08;;;;;;;1.77;0.50;;;9.10;99.90;;;;;;5021122;28;20026;-71
2024/01/03 01:18:34;;;;;;;0.50;0.35;;;9.00;99.90;;;;;;5024765;28;20033;-72
2024/01/03 01:20:59;;;;;;;1.20;0.50;;;9.10;99.90;;;;;;5026118;28;20384;-71
2024/01/03 01:23:25;;;;;;;3.03;0.70;;;9.00;99.90;;;;;;5025295;28;20060;-72
2024/01/03 01:25:50;;;;;;;0.93;0.57;;;9.00;99.90;;;;;;5028051;28;20021;-72
2024/01/03 01:28:16;;;;;;;1.60;0.40;;;9.10;99.90;;;;;;5030008;28;20475;-71
2024/01/03 01:30:42;;;;;;;1.27;0.40;;;9.10;99.90;;;;;;5027629;28;20022;-71
2024/01/03 01:33:07;;;;;;;0.63;0.30;;;9.10;99.90;;;;;;5025532;28;20030;-71
2024/01/03 01:35:33;;;;;;;1.33;0.50;;;9.10;99.90;;;;;;5024570;28;20097;-71
2024/01/03 01:38:03;;;;;;;1.88;0.30;;;9.10;99.90;;;;;;5029507;28;20034;-71
2024/01/03 01:40:29;;;;;;;0.55;0.20;;;9.10;99.90;;;;;;5025655;28;20121;-71
2024/01/03 01:42:55;;;;;;;1.50;0.30;;;9.00;99.90;;;;;;5025914;28;20017;-71
2024/01/03 01:45:20;;;;;;;0.85;0.20;;;9.00;99.90;;;;;;5026333;28;20442;-71
2024/01/03 01:47:46;;;;;;;0.47;0.20;;;9.00;99.90;;;;;;5024925;28;20120;-71
2024/01/03 01:50:13;;;;;;;1.65;0.20;;;8.90;99.90;;;;;;5026044;28;20089;-71
2024/01/03 01:52:39;;;;;;;0.98;0.30;;;8.90;99.90;;;;;;5025229;28;20107;-71
2024/01/03 01:55:06;;;;;;;0.57;0.17;;;8.90;99.90;;;;;;5025672;28;20026;-71
2024/01/03 01:57:33;;;;;;;2.05;0.35;;;8.80;99.90;;;;;;5035996;28;20052;-71
2024/01/03 02:00:00;;;;;;;0.52;0.17;;;8.80;99.90;;;;;;5027672;28;20115;-71
2024/01/03 02:02:26;;;;;;;1.58;0.20;;;8.80;99.90;;;;;;5024959;28;20103;-71
2024/01/03 02:04:53;;;;;;;0.85;0.20;;;8.80;99.90;;;;;;5027099;28;20057;-71
2024/01/03 02:07:19;;;;;;;0.55;0.30;;;8.80;99.90;;;;;;5025114;28;20392;-71
2024/01/03 02:09:45;;;;;;;0.28;0.20;;;8.80;99.90;;;;;;5026096;28;20107;-72
2024/01/03 02:12:10;;;;;;;0.45;0.30;;;8.80;99.90;;;;;;5025614;28;20065;-71
2024/01/03 02:14:36;;;;;;;0.75;0.40;;;8.80;99.90;;;;;;5024658;28;20108;-72
2024/01/03 02:17:02;;;;;;;0.40;0.30;;;8.80;99.90;;;;;;5027462;28;20030;-71
2024/01/03 02:19:27;;;;;;;0.73;0.35;;;8.80;99.90;;;;;;5027925;28;20083;-71
2024/01/03 02:21:53;;;;;;;0.93;0.35;;;8.80;99.90;;;;;;5026154;28;20037;-72
2024/01/03 02:24:19;;;;;;;0.88;0.47;;;8.80;99.90;;;;;;5019975;28;20025;-70
2024/01/03 02:26:44;;;;;;;2.17;0.32;;;8.80;99.90;;;;;;5026792;28;20021;-70
2024/01/03 02:29:10;;;;;;;1.15;0.35;;;8.80;99.90;;;;;;5027659;28;20392;-70
2024/01/03 02:31:35;;;;;;;1.17;0.32;;;8.80;99.90;;;;;;5024386;28;20033;-70
2024/01/03 02:34:01;;;;;;;1.25;0.43;;;8.80;99.90;;;;;;5028034;28;20457;-70
2024/01/03 02:36:27;;;;;;;0.77;0.50;;;8.80;99.90;;;;;;5026891;28;20025;-70
2024/01/03 02:38:53;;;;;;;0.85;0.40;;;8.80;99.90;;;;;;5025030;28;20071;-70
2024/01/03 02:41:19;;;;;;;2.15;0.65;;;8.90;99.90;;;;;;5022745;28;20041;-70
2024/01/03 02:43:44;;;;;;;2.35;0.68;;;8.90;99.90;;;;;;5027059;28;20377;-70
2024/01/03 02:46:10;;;;;;;0.55;0.25;;;8.90;99.90;;;;;;5028543;28;20049;-70
2024/01/03 02:48:39;;;;;;;0.75;0.20;;;8.90;99.90;;;;;;5024429;28;20374;-70
2024/01/03 02:51:05;;;;;;;1.13;0.30;;;8.90;99.90;;;;;;5029023;28;20083;-70
2024/01/03 02:53:31;;;;;;;1.33;0.30;;;8.90;99.90;;;;;;5023866;28;20747;-70
2024/01/03 02:55:58;;;;;;;0.45;0.20;;;9.00;99.90;;;;;;5027155;28;20410;-70
2024/01/03 02:58:23;;;;;;;0.77;0.20;;;9.00;99.90;;;;;;5027513;28;20514;-70
2024/01/03 03:00:49;;;;;;;0.77;0.30;;;9.00;99.90;;;;;;5026484;28;20066;-70
2024/01/03 03:03:14;;;;;;;1.95;0.38;;;9.00;99.90;;;;;;5024799;28;20017;-70
2024/01/03 03:05:40;;;;;;;0.60;0.40;;;9.00;99.90;;;;;;5025073;28;20144;-70
2024/01/03 03:08:06;;;;;;;1.02;0.40;;;9.00;99.90;;;;;;5025234;28;20037;-70
2024/01/03 03:10:31;;;;;;;2.28;0.65;;;9.00;99.90;;;;;;5030401;28;20064;-70
2024/01/03 03:12:57;;;;;;;1.02;0.30;;;9.00;99.90;;;;;;5045300;28;20032;-70
2024/01/03 03:15:23;;;;;;;1.45;0.70;;;9.00;99.90;;;;;;5026830;28;20384;-70
2024/01/03 03:17:48;;;;;;;1.42;0.50;;;9.00;99.90;;;;;;5028986;28;20026;-70
2024/01/03 03:20:14;;;;;;;3.30;0.65;;;9.00;99.90;;;;;;5029444;28;20088;-70
2024/01/03 03:22:40;;;;;;;1.45;0.50;;;9.00;99.90;;;;;;5028258;28;20033;-70
2024/01/03 03:25:06;;;;;;;1.70;0.43;;;9.10;99.90;;;;;;5027581;28;20029;-70
2024/01/03 03:27:31;;;;;;;2.22;0.40;;;9.10;99.90;;;;;;5028347;28;20036;-70
2024/01/03 03:29:57;;;;;;;0.68;0.40;;;9.10;99.90;;;;;;5028425;28;20041;-70
2024/01/03 03:32:22;;;;;;;2.00;0.60;;;9.10;99.90;;;;;;5028342;28;20045;-70
2024/01/03 03:34:49;;;;;;;2.13;0.57;;;9.10;99.90;;;;;;5030123;28;20495;-70
2024/01/03 03:37:15;;;;;;;1.05;0.45;;;9.10;99.90;;;;;;5030827;28;20623;-70
2024/01/03 03:39:40;;;;;;;3.80;0.88;;;9.00;99.90;;;;;;5024224;28;20313;-70
2024/01/03 03:42:06;;;;;;;0.70;0.38;;;9.00;99.90;;;;;;5029552;28;20512;-70
2024/01/03 03:44:32;;;;;;;2.85;0.80;;;9.00;99.90;;;;;;5027912;28;20026;-70
2024/01/03 03:46:57;;;;;;;3.53;0.60;;;9.00;99.90;;;;;;5029044;28;20028;-71
2024/01/03 03:49:23;;;;;;;0.88;0.30;;;9.00;99.90;;;;;;5028421;28;20044;-68
2024/01/03 03:51:48;;;;;;;1.50;0.40;;;8.90;99.90;;;;;;5027793;28;20029;-69
2024/01/03 03:54:14;;;;;;;1.83;0.30;;;8.90;99.90;;;;;;5043998;28;20395;-68
2024/01/03 03:56:39;;;;;;;3.47;1.02;;;8.90;99.90;;;;;;5026620;28;20136;-69
2024/01/03 03:59:07;;;;;;;0.90;0.75;;;8.90;99.90;;;;;;5028379;28;20037;-70
2024/01/03 04:01:32;;;;;;;0.40;0.30;;;8.80;99.90;;;;;;5030712;28;20108;-71
2024/01/03 04:03:58;;;;;;;1.90;0.70;;;8.80;99.90;;;;;;5028167;28;20439;-71
2024/01/03 04:06:23;;;;;;;0.82;0.35;;;8.80;99.90;;;;;;5029131;28;20021;-69
2024/01/03 04:08:50;;;;;;;4.38;0.77;;;8.80;99.90;;;;;;5043466;28;20120;-69
2024/01/03 04:11:16;;;;;;;0.52;0.40;;;8.80;99.90;;;;;;5030616;28;20116;-69
2024/01/03 04:13:41;;;;;;;1.85;0.57;;;8.80;99.90;;;;;;5026067;28;20117;-68
2024/01/03 04:16:10;;;;;;;3.75;2.20;;;8.70;99.90;;;;;;5031065;28;20034;-68
2024/01/03 04:18:36;;;;;;;3.10;1.15;;;8.70;99.90;;;;;;5028281;28;20457;-70
2024/01/03 04:21:05;;;;;;;2.25;0.80;;;8.70;99.90;;;;;;5027069;28;20029;-69
2024/01/03 04:23:31;;;;;;;3.08;0.88;;;8.60;99.90;;;;;;5027007;28;20022;-69
2024/01/03 04:25:57;;;;;;;0.95;0.40;;;8.60;99.90;;;;;;5029390;28;20383;-69
2024/01/03 04:28:23;;;;;;;1.50;0.35;;;8.60;99.90;;;;;;5029995;28;20105;-70
2024/01/03 04:30:49;;;;;;;2.03;0.57;;;8.60;99.90;;;;;;5027945;28;20037;-71
2024/01/03 04:33:14;;;;;;;2.88;1.05;;;8.60;99.90;;;;;;5032083;28;20033;-71
2024/01/03 04:35:40;;;;;;;1.15;0.55;;;8.60;99.90;;;;;;5028789;28;20037;-71
2024/01/03 04:38:05;;;;;;;1.27;0.40;;;8.60;99.90;;;;;;5030064;28;20387;-71
2024/01/03 04:40:32;;;;;;;4.22;0.60;;;8.60;99.90;;;;;;5027718;28;20096;-71
2024/01/03 04:42:58;;;;;;;1.50;0.47;;;8.60;99.90;;;;;;5029951;28;20017;-70
2024/01/03 04:45:24;;;;;;;3.00;0.40;;;8.60;99.90;;;;;;5028162;28;20025;-71
2024/01/03 04:47:50;;;;;;;3.70;0.50;;;8.60;99.90;;;;;;5028601;28;20368;-71
2024/01/03 04:50:17;;;;;;;0.85;0.40;;;8.60;99.90;;;;;;5030359;28;20029;-71
2024/01/03 04:52:42;;;;;;;2.55;0.50;;;8.60;99.90;;;;;;5026032;28;20040;-70
2024/01/03 04:55:08;;;;;;;1.30;0.52;;;8.60;99.90;;;;;;5030947;28;20100;-70
2024/01/03 04:57:34;;;;;;;2.67;0.50;;;8.60;99.90;;;;;;5027656;28;20032;-70
2024/01/03 05:00:00;;;;;;;4.22;0.70;;;8.60;99.90;;;;;;5026547;28;20028;-70
2024/01/03 05:02:26;;;;;;;1.27;0.40;;;8.60;99.90;;;;;;5020361;28;20476;-70
2024/01/03 05:04:52;;;;;;;6.18;0.98;;;8.50;99.90;;;;;;5023473;28;20107;-70
2024/01/03 05:07:18;;;;;;;0.75;0.40;;;8.50;99.90;;;;;;5026723;28;21007;-70
2024/01/03 05:09:44;;;;;;;3.58;0.45;;;8.50;99.90;;;;;;5028239;28;20037;-70
2024/01/03 05:12:10;;;;;;;0.90;0.40;;;8.50;99.90;;;;;;5025960;28;20029;-71
2024/01/03 05:14:36;;;;;;;1.48;0.50;;;8.50;99.90;;;;;;5028257;28;20522;-71
2024/01/03 05:17:02;;;;;;;2.05;0.68;;;8.50;99.90;;;;;;5024798;28;20061;-71
2024/01/03 05:19:28;;;;;;;3.25;0.60;;;8.50;99.90;;;;;;5023171;28;20026;-71
2024/01/03 05:21:53;;;;;;;1.85;0.68;;;8.50;99.90;;;;;;5024692;28;20143;-71
2024/01/03 05:24:22;;;;;;;2.00;0.60;;;8.50;99.90;;;;;;5029207;28;20021;-70
2024/01/03 05:26:47;;;;;;;2.17;0.55;;;8.60;99.90;;;;;;5027537;28;20029;-71
2024/01/03 05:29:13;;;;;;;1.58;0.40;;;8.60;99.90;;;;;;5039724;28;20083;-71
2024/01/03 05:31:39;;;;;;;2.55;0.75;;;8.60;99.90;;;;;;5025743;28;20049;-69
2024/01/03 05:34:06;;;;;;;2.45;0.52;;;8.60;99.90;;;;;;5025237;28;20033;-69
2024/01/03 05:36:32;;;;;;;1.80;0.38;;;8.60;99.90;;;;;;5026901;28;20032;-69
2024/01/03 05:38:57;;;;;;;3.10;0.52;;;8.60;99.90;;;;;;5022885;28;20480;-68
2024/01/03 05:41:23;;;;;;;1.20;0.50;;;8.70;99.90;;;;;;5026858;28;20029;-71
2024/01/03 05:43:49;;;;;;;0.60;0.38;;;8.60;99.90;;;;;;5029446;28;20100;-70
2024/01/03 05:46:14;;;;;;;1.42;0.50;;;8.60;99.90;;;;;;5042857;28;20033;-69
2024/01/03 05:48:40;;;;;;;2.13;0.50;;;8.60;99.90;;;;;;5027928;28;20034;-68
2024/01/03 05:51:06;;;;;;;1.05;0.40;;;8.60;99.90;;;;;;5031071;28;20029;-69
2024/01/03 05:53:32;;;;;;;2.67;0.88;;;8.60;99.90;;;;;;5026152;28;20096;-69
2024/01/03 05:55:58;;;;;;;1.98;0.30;;;8.60;99.90;;;;;;5023206;28;20125;-69
2024/01/03 05:58:23;;;;;;;1.35;0.20;;;8.60;99.90;;;;;;5028644;28;20025;-69
2024/01/03 06:00:49;;;;;;;1.23;0.20;;;8.60;99.90;;;;;;5024237;28;20029;-71
2024/01/03 06:03:14;;;;;;;3.50;0.50;;;8.50;99.90;;;;;;5023875;28;20025;-70
2024/01/03 06:05:40;;;;;;;1.00;0.28;;;8.50;99.90;;;;;;5022440;28;20072;-71
2024/01/03 06:08:06;;;;;;;0.50;0.40;;;8.50;99.90;;;;;;5027595;28;20364;-71
2024/01/03 06:10:31;;;;;;;0.85;0.50;;;8.50;99.90;;;;;;5028640;28;20280;-71
2024/01/03 06:12:57;;;;;;;1.25;0.30;;;8.50;99.90;;;;;;5025020;28;20064;-71
2024/01/03 06:15:22;;;;;;;2.65;0.82;;;8.50;99.90;;;;;;5027588;28;20118;-71
2024/01/03 06:17:48;;;;;;;1.77;0.30;;;8.50;99.90;;;;;;5037203;28;20848;-71
2024/01/03 06:20:14;;;;;;;0.50;0.30;;;8.50;99.90;;;;;;5028258;28;20025;-71
2024/01/03 06:22:40;;;;;;;1.25;0.57;;;8.50;99.90;;;;;;5024309;28;20508;-70
2024/01/03 06:25:05;;;;;;;1.50;0.40;;;8.50;99.90;;;;;;5024017;28;20430;-71
2024/01/03 06:27:31;;;;;;;0.50;0.30;;;8.50;99.90;;;;;;5028053;28;20113;-71
2024/01/03 06:29:57;;;;;;;3.65;0.30;;;8.50;99.90;;;;;;5023536;28;21103;-71
2024/01/03 06:32:22;;;;;;;1.00;0.35;;;8.50;99.90;;;;;;5025081;28;20037;-71
2024/01/03 06:34:54;;;;;;;0.68;0.30;;;8.40;99.90;;;;;;5041912;28;20030;-71
2024/01/03 06:37:19;;;;;;;7.03;0.52;;;8.40;99.90;;;;;;5025819;28;20014;-71
2024/01/03 06:39:45;;;;;;;0.55;0.30;;;8.40;99.90;;;;;;5027435;28;20029;-71
2024/01/03 06:42:10;;;;;;;1.40;0.50;;;8.40;99.90;;;;;;5030077;28;20488;-72
2024/01/03 06:44:36;;;;;;;3.03;0.40;;;8.40;99.90;;;;;;5028407;28;20476;-72
2024/01/03 06:47:01;;;;;;;0.80;0.30;;;8.40;99.90;;;;;;5031574;28;20047;-71
2024/01/03 06:49:27;;;;;;;1.95;0.38;;;8.40;99.90;;;;;;5031237;28;20033;-71
2024/01/03 06:51:53;;;;;;;1.70;0.40;;;8.40;99.90;;;;;;5030805;28;20078;-71
2024/01/03 06:54:18;;;;;;;1.67;0.55;;;8.40;99.90;;;;;;5031943;28;20021;-71
2024/01/03 06:56:44;;;;;;;1.00;0.40;;;8.40;99.90;;;;;;5030956;28;20489;-70
2024/01/03 06:59:09;;;;;;;2.15;0.40;;;8.40;99.90;;;;;;5030416;28;20445;-70
2024/01/03 07:01:35;;;;;;;2.53;0.30;;;8.40;99.90;;;;;;5030607;28;20104;-71
2024/01/03 07:04:01;;;;;;;4.78;1.30;;;8.40;99.90;;;;;;5027367;28;20563;-71
2024/01/03 07:06:27;;;;;;;2.28;0.60;;;8.40;99.90;;;;;;5024378;28;20026;-71
2024/01/03 07:08:53;;;;;;;0.88;0.40;;;8.40;99.90;;;;;;5031589;28;20104;-71
2024/01/03 07:11:20;;;;;;;1.75;0.55;;;8.40;99.90;;;;;;5027461;28;20030;-71
2024/01/03 07:13:45;;;;;;;2.05;0.45;;;8.40;99.90;;;;;;5024391;28;20109;-71
2024/01/03 07:16:11;;;;;;;1.30;0.40;;;8.40;99.90;;;;;;5026559;28;20746;-71
2024/01/03 07:18:37;;;;;;;1.23;0.32;;;8.40;99.90;;;;;;5025161;28;20649;-70
2024/01/03 07:21:03;;;;;;;2.63;0.40;;;8.50;99.90;;;;;;5029974;28;20112;-70
2024/01/03 07:23:29;;;;;;;1.15;0.35;;;8.50;99.90;;;;;;5017226;28;20021;-70
2024/01/03 07:25:55;;;;;;;1.88;0.60;;;8.60;99.90;;;;;;5027489;28;20026;-70
2024/01/03 07:28:20;;;;;;;0.60;0.30;;;8.60;99.90;;;;;;5026396;28;20026;-70
2024/01/03 07:30:46;;;;;;;0.73;0.30;;;8.60;99.90;;;;;;5024255;28;20029;-69
2024/01/03 07:33:11;;;;;;;0.93;0.40;;;8.60;99.90;;;;;;5029761;28;20056;-72
2024/01/03 07:35:37;;;;;;;2.00;0.20;;;8.70;99.90;;;;;;5032243;28;20072;-71
2024/01/03 07:38:03;;;;;;;3.95;0.40;;;8.70;99.90;;;;;;5031351;28;20464;-69
2024/01/03 07:40:28;;;;;;;0.98;0.32;;;8.70;99.90;;;;;;5025807;28;20237;-70
2024/01/03 07:42:54;;;;;;;1.85;0.40;;;8.70;99.90;;;;;;5025459;28;20021;-69
2024/01/03 07:45:19;;;;;;;0.80;0.40;;;8.80;99.90;;;;;;5029061;28;20034;-69
2024/01/03 07:47:45;;;;;;;2.97;0.82;;;8.80;99.90;;;;;;5027724;28;20025;-69
2024/01/03 07:50:11;;;;;;;2.10;0.50;;;8.80;99.90;;;;;;5023811;28;20049;-69
2024/01/03 07:52:37;;;;;;;1.67;0.50;;;8.90;99.90;;;;;;5024657;28;20116;-69
2024/01/03 07:55:03;;;;;;;2.25;0.57;;;8.90;99.90;;;;;;5027934;28;20112;-69
2024/01/03 07:57:29;;;;;;;2.17;0.55;;;8.90;99.90;;;;;;5025489;28;20025;-69
2024/01/03 07:59:54;;;;;;;2.45;0.57;;;9.00;99.90;;;;;;5024121;28;20482;-69
2024/01/03 08:02:20;;;;;;;1.80;0.45;;;8.90;99.90;;;;;;5026480;28;20022;-68
2024/01/03 08:04:46;;;;;;;3.13;0.55;;;8.90;99.90;;;;;;5023489;28;20026;-68
2024/01/03 08:07:11;;;;;;;2.42;0.75;;;9.00;99.90;;;;;;5027284;28;20029;-69
2024/01/03 08:09:40;;;;;;;4.32;0.55;;;9.00;99.90;;;;;;5026659;28;20036;-68
2024/01/03 08:12:06;;;;;;;2.17;0.50;;;9.10;99.90;;;;;;5019807;28;20017;-69
2024/01/03 08:14:34;;;;;;;0.80;0.40;;;9.10;99.90;;;;;;5024749;28;20067;-69
2024/01/03 08:16:59;;;;;;;1.83;0.85;;;9.20;99.90;;;;;;5027620;28;20022;-70
2024/01/03 08:19:25;;;;;;;2.15;0.68;;;9.20;99.90;;;;;;5025454;28;20397;-68
2024/01/03 08:21:50;;;;;;;2.40;0.82;;;9.30;99.90;;;;;;5030080;28;20115;-68
2024/01/03 08:24:16;;;;;;;2.75;1.05;;;9.30;99.90;;;;;;5029470;28;20029;-68
2024/01/03 08:26:41;;;;;;;2.22;0.80;;;9.30;99.90;;;;;;5040671;28;20037;-68
2024/01/03 08:29:11;;;;;;;5.60;0.75;;;9.40;99.90;;;;;;5026890;28;20431;-68
2024/01/03 08:31:36;;;;;;;2.97;0.57;;;9.40;99.90;;;;;;5028991;28;20045;-68
2024/01/03 08:34:02;;;;;;;3.42;0.68;;;9.40;99.90;;;;;;5026823;28;20029;-69
2024/01/03 08:36:42;;;;;;;2.53;0.50;;;9.40;99.90;;;;;;5039175;28;20029;-69
2024/01/03 08:39:08;;;;;;;7.32;0.93;;;9.40;99.90;;;;;;5026771;28;20045;-69
2024/01/03 08:41:35;;;;;;;4.05;0.85;;;9.40;99.90;;;;;;5026837;28;20060;-68
2024/01/03 08:44:02;;;;;;;2.92;0.90;;;9.50;99.90;;;;;;5021984;28;20109;-68
2024/01/03 08:46:32;;;;;;;5.80;0.65;;;9.50;99.90;;;;;;5019280;28;20025;-69
2024/01/03 08:48:58;;;;;;;2.33;0.45;;;9.60;99.90;;;;;;5016485;28;20048;-69
2024/01/03 08:51:24;;;;;;;2.03;0.77;;;9.60;99.90;;;;;;5020205;28;20527;-69
2024/01/03 08:53:50;;;;;;;2.97;0.60;;;9.60;99.90;;;;;;5020622;28;20033;-69
2024/01/03 08:56:16;;;;;;;3.72;0.73;;;9.70;99.90;;;;;;5025546;28;20026;-69
2024/01/03 08:58:44;;;;;;;5.38;1.25;;;9.70;99.90;;;;;;5020575;28;20028;-69
2024/01/03 09:01:15;;;;;;;5.22;1.20;;;9.70;99.90;;;;;;5015467;28;20113;-69
2024/01/03 09:03:41;;;;;;;2.40;0.63;;;9.70;99.90;;;;;;5021490;28;20041;-69
2024/01/03 09:06:06;;;;;;;4.88;0.65;;;9.70;99.90;;;;;;5020469;28;20083;-69
2024/01/03 09:08:32;;;;;;;3.35;0.50;;;9.60;99.90;;;;;;5021300;28;20034;-69
2024/01/03 09:10:58;;;;;;;4.70;1.25;;;9.60;99.90;;;;;;5023821;28;20033;-69
2024/01/03 09:13:23;;;;;;;2.38;0.80;;;9.60;99.90;;;;;;5020980;28;23818;-69
2024/01/03 09:15:50;;;;;;;3.78;1.08;;;9.50;99.90;;;;;;5015781;28;20489;-70
2024/01/03 09:18:16;;;;;;;6.63;0.90;;;9.50;99.90;;;;;;5023036;28;20037;-69
2024/01/03 09:20:41;;;;;;;3.42;0.60;;;9.50;99.90;;;;;;5011973;28;20041;-69
2024/01/03 09:23:07;;;;;;;3.25;1.10;;;9.50;99.90;;;;;;5021512;28;20046;-69
2024/01/03 09:25:32;;;;;;;1.80;0.52;;;9.40;99.90;;;;;;5022840;28;20055;-69
2024/01/03 09:27:58;;;;;;;3.70;1.08;;;9.40;99.90;;;;;;5020775;28;20033;-69
2024/01/03 09:30:24;;;;;;;3.00;0.63;;;9.40;99.90;;;;;;5039708;28;20022;-69
2024/01/03 09:32:50;;;;;;;6.88;2.05;;;9.40;99.90;;;;;;5023140;28;20150;-69
2024/01/03 09:35:16;;;;;;;3.53;0.73;;;9.40;99.90;;;;;;5010925;28;20166;-68
2024/01/03 09:37:41;;;;;;;4.05;0.77;;;9.50;99.90;;;;;;5017526;28;20030;-69
2024/01/03 09:40:09;;;;;;;4.05;0.80;;;9.50;99.90;;;;;;5016116;28;20054;-69
2024/01/03 09:42:36;;;;;;;6.22;1.17;;;9.50;99.90;;;;;;5018177;28;20022;-69
2024/01/03 09:45:02;;;;;;;2.85;0.80;;;9.60;99.90;;;;;;5016413;28;20124;-68
2024/01/03 09:47:28;;;;;;;4.28;0.90;;;9.60;99.90;;;;;;5020518;28;20588;-68
2024/01/03 09:49:54;;;;;;;1.95;0.80;;;9.60;99.90;;;;;;5026129;28;20160;-69
2024/01/03 09:52:19;;;;;;;3.47;0.85;;;9.70;99.90;;;;;;5020994;28;20041;-70
2024/01/03 09:54:46;;;;;;;2.47;0.60;;;9.70;99.90;;;;;;5019145;28;20045;-70
2024/01/03 09:57:12;;;;;;;1.90;0.52;;;9.80;99.90;;;;;;5019526;28;20017;-69
2024/01/03 09:59:38;;;;;;;6.85;1.00;;;9.80;99.90;;;;;;5025476;28;20079;-70
2024/01/03 10:02:06;;;;;;;6.47;1.08;;;9.80;99.90;;;;;;5021274;28;20489;-70
2024/01/03 10:04:33;;;;;;;3.60;0.50;;;9.80;99.90;;;;;;5018590;28;20353;-70
2024/01/03 10:06:59;;;;;;;3.72;0.80;;;9.80;99.90;;;;;;5023010;28;20056;-70
2024/01/03 10:09:34;;;;;;;2.78;0.75;;;9.80;99.90;;;;;;5020801;28;20046;-70
2024/01/03 10:12:17;;;;;;;4.18;0.70;;;9.80;99.90;;;;;;5018349;28;20079;-70
2024/01/03 10:14:43;;;;;;;2.20;0.70;;;9.80;99.90;;;;;;5022364;28;20028;-70
2024/01/03 10:17:09;;;;;;;3.70;0.60;;;9.80;99.90;;;;;;5016272;28;20029;-70
2024/01/03 10:19:35;;;;;;;4.55;1.25;;;9.80;99.90;;;;;;5011367;28;20080;-68
2024/01/03 10:22:02;;;;;;;1.77;0.65;;;9.90;99.90;;;;;;5015688;28;20427;-69
2024/01/03 10:24:29;;;;;;;4.32;0.60;;;9.90;99.90;;;;;;5021159;28;20491;-70
2024/01/03 10:26:55;;;;;;;2.97;1.02;;;9.90;99.90;;;;;;5019385;28;20094;-69
2024/01/03 10:29:21;;;;;;;1.42;0.50;;;10.00;99.90;;;;;;5022307;28;20338;-70
2024/01/03 10:31:48;;;;;;;3.42;0.80;;;10.10;99.90;;;;;;5023664;28;20034;-70
2024/01/03 10:34:21;;;;;;;3.63;0.60;;;10.10;99.90;;;;;;5020480;28;20500;-70
2024/01/03 10:36:47;;;;;;;4.20;0.57;;;10.10;99.90;;;;;;5018043;28;20032;-70
2024/01/03 10:39:16;;;;;;;5.38;0.98;;;10.20;99.90;;;;;;5020178;28;20803;-71
2024/01/03 10:41:53;;;;;;;2.45;0.77;;;10.20;99.90;;;;;;5015072;28;20105;-70
2024/01/03 10:44:20;;;;;;;4.32;0.47;;;10.30;99.90;;;;;;5019055;28;20017;-71
2024/01/03 10:46:47;;;;;;;3.60;0.80;;;10.30;99.90;;;;;;5022544;28;20028;-71
2024/01/03 10:49:15;;;;;;;4.47;0.70;;;10.30;99.90;;;;;;5016513;28;20466;-70
2024/01/03 10:51:44;;;;;;;2.90;0.65;;;10.30;99.90;;;;;;5017826;28;22358;-70
2024/01/03 10:54:14;;;;;;;4.20;0.60;;;10.30;99.90;;;;;;5027651;28;20057;-70
2024/01/03 10:57:00;;;;;;;1.58;0.60;;;10.30;99.90;;;;;;5024656;28;20024;-71
2024/01/03 10:59:35;;;;;;;2.08;0.63;;;10.30;99.90;;;;;;5027111;28;20493;-70
2024/01/03 11:02:17;;;;;;;2.25;0.43;;;10.30;99.90;;;;;;5024223;28;20481;-70
2024/01/03 11:05:01;;;;;;;2.97;1.15;;;10.20;99.90;;;;;;5023059;28;20124;-70
2024/01/03 11:07:38;;;;;;;1.80;0.73;;;10.20;99.90;;;;;;5020910;28;20047;-69
2024/01/03 11:10:04;;;;;;;2.03;0.65;;;10.30;99.90;;;;;;5019933;28;20508;-68
2024/01/03 11:12:29;;;;;;;2.05;0.60;;;10.30;99.90;;;;;;5018163;28;20120;-69
2024/01/03 11:15:15;;;;;;;1.42;0.52;;;10.30;99.90;;;;;;5020300;28;20081;-69
2024/01/03 11:17:40;;;;;;;2.35;0.60;;;10.30;99.90;;;;;;5018949;28;20116;-68
2024/01/03 11:20:10;;;;;;;1.85;0.70;;;10.40;99.90;;;;;;5020340;28;20467;-68
2024/01/03 11:22:58;;;;;;;3.72;0.70;;;10.40;99.90;;;;;;5020621;28;20116;-68
2024/01/03 11:25:51;;;;;;;3.10;0.90;;;10.50;99.90;;;;;;5015626;28;20099;-68
2024/01/03 11:28:33;;;;;;;2.63;0.60;;;10.50;99.90;;;;;;5026981;28;20049;-67
2024/01/03 11:31:00;;;;;;;2.33;0.50;;;10.60;99.90;;;;;;5024750;28;20029;-67
2024/01/03 11:33:28;;;;;;;4.00;0.60;;;10.70;99.90;;;;;;5023298;28;20128;-68
2024/01/03 11:35:54;;;;;;;1.55;0.52;;;10.80;99.90;;;;;;5018000;28;20025;-70
2024/01/03 11:38:46;;;;;;;4.65;0.77;;;10.80;99.90;;;;;;5019033;28;20115;-68
2024/01/03 11:41:15;;;;;;;3.83;0.70;;;10.80;99.90;;;;;;5028131;28;20032;-69
2024/01/03 11:43:41;;;;;;;1.50;0.50;;;10.80;99.90;;;;;;5025326;28;20816;-69
2024/01/03 11:46:13;;;;;;;5.22;0.70;;;10.70;99.90;;;;;;5021003;28;20040;-69
2024/01/03 11:48:39;;;;;;;7.78;0.75;;;10.70;99.90;;;;;;5021640;28;20033;-69
2024/01/03 11:51:25;;;;;;;3.15;0.60;;;10.80;99.90;;;;;;5020022;28;20595;-69
2024/01/03 11:53:52;;;;;;;3.65;0.60;;;10.70;99.90;;;;;;5015114;28;20034;-70
2024/01/03 11:56:33;;;;;;;3.40;0.65;;;10.80;99.90;;;;;;5039823;28;20034;-70
2024/01/03 11:59:00;;;;;;;1.90;0.50;;;10.80;99.90;;;;;;5021801;28;20021;-70
2024/01/03 12:01:26;;;;;;;3.60;0.63;;;10.80;99.90;;;;;;5021130;28;20143;-69
2024/01/03 12:04:07;;;;;;;3.28;0.63;;;10.80;99.90;;;;;;5026075;28;20314;-69
2024/01/03 12:06:33;;;;;;;2.28;0.73;;;10.70;99.90;;;;;;5026227;28;20116;-69
2024/01/03 12:08:59;;;;;;;2.28;0.70;;;10.60;99.90;;;;;;5024486;28;20388;-70
2024/01/03 12:11:25;;;;;;;2.33;0.63;;;10.50;99.90;;;;;;5021062;28;20025;-69
2024/01/03 12:13:51;;;;;;;1.13;0.30;;;10.40;99.90;;;;;;5024187;28;20025;-69
2024/01/03 12:16:16;;;;;;;2.38;0.50;;;10.30;99.90;;;;;;5023129;28;20032;-69
2024/01/03 12:18:50;;;;;;;2.15;0.40;;;10.20;99.90;;;;;;5021187;28;20033;-69
2024/01/03 12:21:15;;;;;;;2.28;0.70;;;10.20;99.90;;;;;;5026044;28;20018;-69
2024/01/03 12:24:02;;;;;;;2.42;0.60;;;10.20;99.90;;;;;;5016437;28;20041;-70
2024/01/03 12:26:28;;;;;;;3.63;0.40;;;10.10;99.90;;;;;;5025175;28;20036;-70
2024/01/03 12:29:04;;;;;;;1.58;0.52;;;10.10;99.90;;;;;;5024120;28;20496;-71
2024/01/03 12:31:29;;;;;;;4.18;1.02;;;10.10;99.90;;;;;;5028052;28;20032;-68
2024/01/03 12:34:05;;;;;;;1.35;0.45;;;10.20;99.90;;;;;;5022078;28;20057;-69
2024/01/03 12:36:30;;;;;;;2.90;1.13;;;10.20;99.90;;;;;;5025335;28;20890;-69
2024/01/03 12:39:00;;;;;;;2.17;0.40;;;10.20;99.90;;;;;;5026529;28;20480;-69
2024/01/03 12:41:25;;;;;;;3.85;0.63;;;10.30;99.90;;;;;;5020424;28;20429;-70
2024/01/03 12:43:51;;;;;;;4.55;0.90;;;10.30;99.90;;;;;;5025786;28;20032;-69
2024/01/03 12:46:17;;;;;;;3.47;0.73;;;10.30;99.90;;;;;;5028273;28;20033;-69
2024/01/03 12:48:44;;;;;;;1.80;0.43;;;10.30;99.90;;;;;;5020613;28;20037;-69
2024/01/03 12:51:10;;;;;;;0.98;0.55;;;10.30;99.90;;;;;;5023545;28;20632;-70
2024/01/03 12:53:36;;;;;;;3.30;0.52;;;10.30;99.90;;;;;;5024422;28;20128;-69
2024/01/03 12:56:02;;;;;;;2.33;0.70;;;10.30;99.90;;;;;;5023802;28;20029;-70